Portada
METAR-TAF:

METAR-TAF

Aeropuertos :

Chengdu, China

Aeropuerto Internacional de Chengdú-Shuangliu

latitud: 30-40N, longitud: 104-01E, altitud: 508 m

Observación

El informe se hizo hace 29 minutos, a las 15:00 UTC
Viento 6 kt del norte-noreste, variando entre norte y noreste
Temperatura 11°C
Humedad 71%
Presión 1014 hPa
Visibilidad: 7000 m
Nubes dispersas a una altura de 4000 ft

METAR: ZUUU 231500Z 02003MPS 350V050 7000 SCT040 11/06 Q1014 NOSIG

Hora: 23:29 (15:29 UTC)

Pronóstico

El informe se hizo hace 7 horas y 25 minutos, a las 08:04 UTC
Pronóstico válido del 23 a las 12 UTC al 24 a las 12 UTC
Viento 6 kt del norte-noreste
Visibilidad: 3500 m
Nubes dispersas a una altura de 4000 ft
neblina
Temporalmente
del 23 a las 18 UTC al 23 a las 22 UTC
lluvia ligera

TAF: ZUUU 230804Z 2312/2412 02003MPS 3500 BR SCT040 TX08/2313Z TN03/2323Z TEMPO 2318/2322 -RA

Observaciones y pronósticos meteorológicos de más de 4000 aeropuertos (mensajes METAR y TAF).

Los puntos amarillos y rojos representan las estaciones disponibles.

Ponga el ratón en el punto deseado para ver el nombre de la estación.

Haga clic para ver las observaciones y los pronósticos meteorológicos.

Para cambiar el mapa : haga clic en los botones verdes con una cruz de color negro para hacer un zoom, en el botón verde con un guión para alejar o en las flechas verdes para mapas adyacentes.


METAR-TAF: